createdAt,value
2018-04-30T00:00:21.244Z,17.14
2018-04-30T00:00:56.564Z,17.18
2018-04-30T00:01:31.866Z,17.26
2018-04-30T00:02:07.227Z,17.32
2018-04-30T00:02:42.504Z,17.26
2018-04-30T00:03:17.742Z,17.32
2018-04-30T00:03:52.942Z,17.23
2018-04-30T00:04:28.245Z,17.28
2018-04-30T00:05:03.671Z,17.23
2018-04-30T00:05:39.005Z,17.25
2018-04-30T00:06:14.325Z,17.25
2018-04-30T00:06:49.522Z,17.23
2018-04-30T00:07:24.847Z,17.32
2018-04-30T00:08:00.136Z,17.32
2018-04-30T00:08:35.453Z,17.40
2018-04-30T00:09:10.935Z,17.29
2018-04-30T00:09:46.037Z,17.33
2018-04-30T00:10:21.437Z,17.30
2018-04-30T00:10:56.768Z,17.38
2018-04-30T00:11:32.032Z,17.26
2018-04-30T00:12:07.447Z,17.26
2018-04-30T00:12:42.855Z,17.32
2018-04-30T00:13:18.143Z,17.25
2018-04-30T00:13:53.595Z,17.17
2018-04-30T00:14:28.978Z,17.30
2018-04-30T00:15:04.191Z,17.23
2018-04-30T00:15:39.578Z,17.17
2018-04-30T00:16:14.836Z,17.22
2018-04-30T00:16:50.232Z,17.26
2018-04-30T00:17:25.572Z,17.25
2018-04-30T00:18:00.672Z,17.10
2018-04-30T00:18:35.786Z,17.20
2018-04-30T00:19:11.504Z,17.23
2018-04-30T00:19:46.726Z,17.14
2018-04-30T00:20:22.157Z,17.20
2018-04-30T00:20:57.336Z,17.15
2018-04-30T00:21:32.664Z,17.15
2018-04-30T00:22:07.856Z,17.11
2018-04-30T00:22:43.096Z,17.22
2018-04-30T00:23:18.218Z,17.00
2018-04-30T00:23:53.343Z,17.03
2018-04-30T00:24:28.877Z,17.10
2018-04-30T00:25:04.099Z,17.11
2018-04-30T00:25:39.603Z,17.10
2018-04-30T00:26:15.114Z,17.06
2018-04-30T00:26:50.274Z,17.07
2018-04-30T00:27:25.362Z,17.14
2018-04-30T00:28:00.889Z,17.08
2018-04-30T00:28:36.093Z,17.13
2018-04-30T00:29:11.692Z,17.13
2018-04-30T00:29:46.882Z,17.04
2018-04-30T00:30:22.331Z,16.98
2018-04-30T00:30:57.547Z,16.95
2018-04-30T00:31:32.956Z,16.90
2018-04-30T00:32:08.094Z,16.89
2018-04-30T00:32:43.799Z,16.93
2018-04-30T00:33:19.338Z,16.86
2018-04-30T00:33:54.642Z,16.85
2018-04-30T00:34:30.065Z,16.67
2018-04-30T00:35:05.071Z,16.73
2018-04-30T00:35:40.806Z,16.70
2018-04-30T00:36:16.098Z,16.62
2018-04-30T00:36:53.128Z,16.59
2018-04-30T00:37:28.596Z,16.52
2018-04-30T00:38:04.109Z,16.44
2018-04-30T00:38:39.733Z,16.48
2018-04-30T00:39:15.312Z,16.45
2018-04-30T00:39:50.729Z,16.48
2018-04-30T00:40:26.260Z,16.27
2018-04-30T00:41:01.473Z,16.30
2018-04-30T00:41:36.664Z,16.37
2018-04-30T00:42:12.277Z,16.31
2018-04-30T00:42:48.036Z,16.30
2018-04-30T00:43:23.135Z,16.41
2018-04-30T00:43:58.452Z,16.20
2018-04-30T00:44:33.745Z,16.25
2018-04-30T00:45:09.273Z,16.23
2018-04-30T00:45:44.782Z,16.22
2018-04-30T00:46:19.826Z,16.23
2018-04-30T00:46:55.323Z,16.09
2018-04-30T00:47:30.866Z,16.04
2018-04-30T00:48:06.140Z,16.00
2018-04-30T00:48:41.456Z,16.04
2018-04-30T00:49:16.896Z,16.03
2018-04-30T00:49:51.892Z,15.88
2018-04-30T00:50:27.010Z,15.94
2018-04-30T00:51:02.402Z,15.96
2018-04-30T00:51:37.626Z,15.75
2018-04-30T00:52:13.028Z,15.67
2018-04-30T00:52:48.401Z,15.70
2018-04-30T00:53:23.599Z,15.61
2018-04-30T00:53:59.116Z,15.63
2018-04-30T00:54:34.716Z,15.51
2018-04-30T00:55:09.953Z,15.54
2018-04-30T00:55:45.292Z,15.39
2018-04-30T00:56:21.074Z,15.36
2018-04-30T00:56:56.397Z,15.36
2018-04-30T00:57:31.485Z,15.42
2018-04-30T00:58:06.749Z,15.33
2018-04-30T00:58:41.961Z,15.31
2018-04-30T00:59:17.788Z,15.19
2018-04-30T00:59:53.091Z,15.21
2018-04-30T01:00:28.520Z,15.08
2018-04-30T01:01:03.781Z,15.11
2018-04-30T01:01:39.270Z,14.98
2018-04-30T01:02:14.505Z,15.12
2018-04-30T01:02:50.323Z,15.13
2018-04-30T01:03:26.039Z,15.05
2018-04-30T01:04:01.377Z,14.95
2018-04-30T01:04:36.809Z,15.02
2018-04-30T01:05:12.372Z,14.84
2018-04-30T01:05:47.785Z,14.91
2018-04-30T01:06:23.099Z,14.86
2018-04-30T01:06:58.641Z,14.71
2018-04-30T01:07:33.964Z,14.84
2018-04-30T01:08:09.244Z,14.74
2018-04-30T01:08:44.651Z,14.87
2018-04-30T01:09:19.945Z,14.90
2018-04-30T01:09:55.260Z,14.83
2018-04-30T01:10:30.433Z,14.75
2018-04-30T01:11:05.962Z,14.61
2018-04-30T01:11:41.360Z,14.60
2018-04-30T01:12:16.921Z,14.61
2018-04-30T01:12:52.146Z,14.50
2018-04-30T01:13:27.792Z,14.57
2018-04-30T01:14:03.141Z,14.61
2018-04-30T01:14:38.249Z,14.44
2018-04-30T01:15:13.869Z,14.46
2018-04-30T01:15:50.984Z,14.53
2018-04-30T01:16:26.605Z,14.54
2018-04-30T01:17:02.132Z,14.47
2018-04-30T01:17:37.773Z,14.52
2018-04-30T01:18:13.088Z,14.38
2018-04-30T01:18:48.707Z,14.43
2018-04-30T01:19:24.467Z,14.57
2018-04-30T01:19:59.783Z,14.42
2018-04-30T01:20:35.292Z,14.49
2018-04-30T01:21:10.601Z,14.52
2018-04-30T01:21:47.704Z,14.54
2018-04-30T01:22:24.010Z,14.57
2018-04-30T01:22:59.052Z,14.49
2018-04-30T01:23:34.268Z,14.39
2018-04-30T01:24:09.603Z,14.50
2018-04-30T01:24:45.090Z,14.47
2018-04-30T01:25:20.302Z,14.37
2018-04-30T01:25:55.526Z,14.42
2018-04-30T01:26:30.842Z,14.46
2018-04-30T01:27:06.169Z,14.43
2018-04-30T01:27:41.668Z,14.46
2018-04-30T01:28:17.232Z,14.35
2018-04-30T01:28:52.862Z,14.37
2018-04-30T01:29:28.532Z,14.27
2018-04-30T01:30:03.721Z,14.31
2018-04-30T01:30:39.764Z,14.27
2018-04-30T01:31:14.857Z,14.16
2018-04-30T01:31:50.198Z,14.14
2018-04-30T01:32:25.712Z,14.12
2018-04-30T01:33:01.100Z,14.14
2018-04-30T01:33:36.911Z,14.16
2018-04-30T01:34:12.532Z,14.17
2018-04-30T01:34:47.978Z,14.21
2018-04-30T01:35:23.461Z,14.27
2018-04-30T01:35:58.890Z,14.31
2018-04-30T01:36:34.277Z,14.27
2018-04-30T01:37:09.906Z,14.32
2018-04-30T01:37:45.114Z,14.14
2018-04-30T01:38:20.500Z,14.29
2018-04-30T01:38:55.517Z,14.27
2018-04-30T01:39:30.732Z,14.20
2018-04-30T01:40:06.046Z,14.24
2018-04-30T01:40:42.173Z,14.14
2018-04-30T01:41:17.426Z,14.10
2018-04-30T01:41:52.826Z,14.13
2018-04-30T01:42:27.940Z,14.09
2018-04-30T01:43:03.299Z,14.09
2018-04-30T01:43:38.500Z,14.04
2018-04-30T01:44:13.773Z,14.16
2018-04-30T01:44:48.861Z,14.09
2018-04-30T01:45:24.078Z,14.06
2018-04-30T01:45:59.472Z,14.01
2018-04-30T01:46:34.929Z,14.02
2018-04-30T01:47:10.307Z,14.07
2018-04-30T01:47:45.735Z,14.14
2018-04-30T01:48:20.894Z,14.06
2018-04-30T01:48:56.316Z,14.10
2018-04-30T01:49:31.758Z,14.06
2018-04-30T01:50:07.479Z,14.07
2018-04-30T01:50:43.119Z,14.01
2018-04-30T01:51:18.335Z,14.09
2018-04-30T01:51:53.544Z,13.96
2018-04-30T01:52:28.553Z,14.04
2018-04-30T01:53:03.908Z,14.04
2018-04-30T01:53:39.303Z,14.06
2018-04-30T01:54:14.617Z,14.04
2018-04-30T01:54:49.950Z,14.09
2018-04-30T01:55:25.540Z,13.99
2018-04-30T01:56:00.948Z,13.96
2018-04-30T01:56:36.353Z,13.99
2018-04-30T01:57:11.587Z,13.99
2018-04-30T01:57:46.999Z,14.02
2018-04-30T01:58:22.220Z,14.02
2018-04-30T01:58:57.617Z,14.01
2018-04-30T01:59:32.781Z,13.94
2018-04-30T02:00:07.784Z,14.02
2018-04-30T02:00:42.898Z,13.95
2018-04-30T02:01:18.118Z,14.02
2018-04-30T02:01:53.338Z,14.02
2018-04-30T02:02:28.684Z,13.99
2018-04-30T02:03:03.959Z,14.02
2018-04-30T02:03:39.485Z,13.96
2018-04-30T02:04:14.780Z,14.07
2018-04-30T02:04:50.026Z,14.04
2018-04-30T02:05:25.331Z,14.07
2018-04-30T02:06:00.749Z,14.07
2018-04-30T02:06:36.238Z,13.99
2018-04-30T02:07:11.570Z,14.06
2018-04-30T02:07:46.887Z,14.07
2018-04-30T02:08:22.347Z,14.01
2018-04-30T02:08:57.790Z,14.02
2018-04-30T02:09:33.230Z,13.87
2018-04-30T02:10:08.547Z,13.99
2018-04-30T02:10:43.832Z,14.02
2018-04-30T02:11:18.964Z,13.98
2018-04-30T02:11:54.043Z,14.07
2018-04-30T02:12:29.257Z,14.04
2018-04-30T02:13:04.362Z,14.12
2018-04-30T02:13:39.684Z,14.04
2018-04-30T02:14:15.137Z,14.01
2018-04-30T02:14:50.441Z,14.04
2018-04-30T02:15:25.841Z,14.04
2018-04-30T02:16:01.137Z,13.96
2018-04-30T02:16:36.666Z,13.94
2018-04-30T02:17:12.061Z,14.04
2018-04-30T02:17:47.476Z,13.92
2018-04-30T02:18:23.177Z,13.98
2018-04-30T02:18:58.611Z,13.91
2018-04-30T02:19:34.220Z,13.91
2018-04-30T02:20:09.461Z,13.91
2018-04-30T02:20:44.995Z,13.91
2018-04-30T02:21:20.376Z,13.88
2018-04-30T02:21:55.803Z,13.83
2018-04-30T02:22:31.199Z,13.80
2018-04-30T02:23:06.422Z,13.92
2018-04-30T02:23:41.635Z,13.88
2018-04-30T02:24:17.063Z,13.80
2018-04-30T02:24:52.264Z,13.83
2018-04-30T02:25:27.905Z,13.91
2018-04-30T02:26:05.397Z,13.91
2018-04-30T02:26:40.533Z,13.88
2018-04-30T02:27:16.051Z,13.92
2018-04-30T02:27:51.329Z,13.94
2018-04-30T02:28:26.563Z,13.89
2018-04-30T02:29:01.862Z,13.98
2018-04-30T02:29:37.179Z,13.95
2018-04-30T02:30:12.583Z,14.02
2018-04-30T02:30:48.729Z,14.02
2018-04-30T02:31:23.845Z,13.96
2018-04-30T02:31:59.043Z,13.84
2018-04-30T02:32:34.380Z,13.88
2018-04-30T02:33:09.571Z,13.89
2018-04-30T02:33:44.896Z,13.84
2018-04-30T02:34:20.126Z,13.77
2018-04-30T02:34:55.450Z,13.76
2018-04-30T02:35:30.639Z,13.77
2018-04-30T02:36:06.048Z,13.79
2018-04-30T02:36:41.254Z,13.80
2018-04-30T02:37:16.578Z,13.76
2018-04-30T02:37:51.796Z,13.69
2018-04-30T02:38:27.079Z,13.56
2018-04-30T02:39:02.304Z,13.70
2018-04-30T02:39:37.513Z,13.71
2018-04-30T02:40:13.052Z,13.59
2018-04-30T02:40:48.589Z,13.74
2018-04-30T02:41:23.822Z,13.70
2018-04-30T02:41:59.124Z,13.73
2018-04-30T02:42:34.471Z,13.70
2018-04-30T02:43:09.856Z,13.69
2018-04-30T02:43:45.465Z,13.71
2018-04-30T02:44:20.770Z,13.80
2018-04-30T02:44:56.226Z,13.69
2018-04-30T02:45:31.565Z,13.71
2018-04-30T02:46:06.662Z,13.76
2018-04-30T02:46:41.785Z,13.70
2018-04-30T02:47:17.273Z,13.81
2018-04-30T02:47:52.275Z,13.83
2018-04-30T02:48:28.050Z,13.76
2018-04-30T02:49:03.396Z,13.76
2018-04-30T02:49:38.494Z,13.70
2018-04-30T02:50:14.225Z,13.71
2018-04-30T02:50:50.051Z,13.69
2018-04-30T02:51:25.663Z,13.65
2018-04-30T02:52:01.177Z,13.67
2018-04-30T02:52:36.376Z,13.67
2018-04-30T02:53:11.818Z,13.80
2018-04-30T02:53:47.120Z,13.70
2018-04-30T02:54:22.328Z,13.77
2018-04-30T02:54:57.744Z,13.69
2018-04-30T02:55:32.960Z,13.67
2018-04-30T02:56:08.409Z,13.67
2018-04-30T02:56:43.819Z,13.59
2018-04-30T02:57:19.232Z,13.69
2018-04-30T02:57:54.864Z,13.69
2018-04-30T02:58:30.150Z,13.59
2018-04-30T02:59:05.519Z,13.67
2018-04-30T02:59:40.850Z,13.67
2018-04-30T03:00:16.270Z,13.71
2018-04-30T03:00:54.390Z,13.70
2018-04-30T03:01:29.724Z,13.73
2018-04-30T03:02:05.123Z,13.69
2018-04-30T03:02:40.667Z,13.69
2018-04-30T03:03:16.160Z,13.69
2018-04-30T03:03:51.586Z,13.67
2018-04-30T03:04:26.888Z,13.77
2018-04-30T03:05:02.111Z,13.81
2018-04-30T03:05:37.830Z,13.83
2018-04-30T03:06:13.050Z,13.77
2018-04-30T03:06:48.459Z,13.70
2018-04-30T03:07:23.762Z,13.80
2018-04-30T03:07:59.013Z,13.80
2018-04-30T03:08:34.088Z,13.81
2018-04-30T03:09:09.421Z,13.83
2018-04-30T03:09:44.707Z,13.79
2018-04-30T03:10:19.873Z,13.84
2018-04-30T03:10:55.202Z,13.88
2018-04-30T03:11:30.726Z,13.83
2018-04-30T03:12:05.929Z,13.91
2018-04-30T03:12:41.350Z,13.83
2018-04-30T03:13:16.452Z,13.67
2018-04-30T03:13:51.951Z,13.67
2018-04-30T03:14:27.168Z,13.70
2018-04-30T03:15:02.570Z,13.61
2018-04-30T03:15:38.610Z,13.69
2018-04-30T03:16:13.906Z,13.63
2018-04-30T03:16:49.716Z,13.70
2018-04-30T03:17:25.022Z,13.67
2018-04-30T03:18:00.339Z,13.73
2018-04-30T03:18:35.648Z,13.71
2018-04-30T03:19:10.772Z,13.67
2018-04-30T03:19:46.281Z,13.76
2018-04-30T03:20:21.500Z,13.67
2018-04-30T03:20:56.653Z,13.76
2018-04-30T03:21:31.941Z,13.69
2018-04-30T03:22:07.544Z,13.73
2018-04-30T03:22:43.060Z,13.69
2018-04-30T03:23:18.573Z,13.76
2018-04-30T03:23:53.771Z,13.73
2018-04-30T03:24:29.721Z,13.76
2018-04-30T03:25:05.452Z,13.77
2018-04-30T03:25:40.892Z,13.83
2018-04-30T03:26:16.425Z,13.83
2018-04-30T03:26:51.826Z,13.87
2018-04-30T03:27:27.361Z,13.83
2018-04-30T03:28:02.645Z,13.70
2018-04-30T03:28:37.852Z,13.81
2018-04-30T03:29:13.144Z,13.71
2018-04-30T03:29:48.684Z,13.71
2018-04-30T03:30:23.990Z,13.79
2018-04-30T03:30:59.327Z,13.80
2018-04-30T03:31:34.688Z,13.77
2018-04-30T03:32:10.281Z,13.77
2018-04-30T03:32:45.624Z,13.83
2018-04-30T03:33:20.969Z,13.77
2018-04-30T03:33:56.276Z,13.80
2018-04-30T03:34:31.469Z,13.83
2018-04-30T03:35:06.693Z,13.81
2018-04-30T03:35:42.292Z,13.89
2018-04-30T03:36:17.715Z,13.84
2018-04-30T03:36:52.848Z,13.92
2018-04-30T03:37:28.168Z,13.91
2018-04-30T03:38:03.190Z,13.91
2018-04-30T03:38:38.475Z,13.87
2018-04-30T03:39:13.795Z,13.84
2018-04-30T03:39:48.998Z,13.80
2018-04-30T03:40:24.236Z,13.80
2018-04-30T03:40:59.668Z,13.67
2018-04-30T03:41:35.092Z,13.76
2018-04-30T03:42:10.393Z,13.70
2018-04-30T03:42:45.824Z,13.69
2018-04-30T03:43:21.230Z,13.62
2018-04-30T03:43:56.765Z,13.55
2018-04-30T03:44:31.994Z,13.58
2018-04-30T03:45:07.312Z,13.55
2018-04-30T03:45:42.860Z,13.58
2018-04-30T03:46:18.246Z,13.56
2018-04-30T03:46:53.898Z,13.65
2018-04-30T03:47:29.217Z,13.62
2018-04-30T03:48:04.738Z,13.69
2018-04-30T03:48:39.838Z,13.67
2018-04-30T03:49:15.174Z,13.67
2018-04-30T03:49:50.470Z,13.69
2018-04-30T03:50:25.787Z,13.76
2018-04-30T03:51:01.160Z,13.76
2018-04-30T03:51:36.649Z,13.73
2018-04-30T03:52:12.045Z,13.67
2018-04-30T03:52:47.330Z,13.77
2018-04-30T03:53:22.462Z,13.76
2018-04-30T03:53:57.874Z,13.71
2018-04-30T03:54:33.201Z,13.71
2018-04-30T03:55:08.609Z,13.71
2018-04-30T03:55:44.345Z,13.70
2018-04-30T03:56:19.385Z,13.71
2018-04-30T03:56:54.963Z,13.70
2018-04-30T03:57:30.293Z,13.65
2018-04-30T03:58:05.771Z,13.56
2018-04-30T03:58:41.003Z,13.61
2018-04-30T03:59:16.401Z,13.58
2018-04-30T03:59:51.613Z,13.59
2018-04-30T04:00:26.806Z,13.61
2018-04-30T04:01:02.268Z,13.56
2018-04-30T04:01:37.673Z,13.51
2018-04-30T04:02:13.102Z,13.61
2018-04-30T04:02:48.605Z,13.51
2018-04-30T04:03:23.778Z,13.52
2018-04-30T04:03:59.091Z,13.52
2018-04-30T04:04:34.401Z,13.67
2018-04-30T04:05:09.821Z,13.52
2018-04-30T04:05:44.935Z,13.58
2018-04-30T04:06:20.283Z,13.59
2018-04-30T04:06:55.360Z,13.54
2018-04-30T04:07:30.675Z,13.56
2018-04-30T04:08:05.977Z,13.51
2018-04-30T04:08:41.599Z,13.38
2018-04-30T04:09:16.928Z,13.46
2018-04-30T04:09:52.037Z,13.36
2018-04-30T04:10:27.253Z,13.40
2018-04-30T04:11:02.666Z,13.32
2018-04-30T04:11:38.073Z,13.46
2018-04-30T04:12:13.280Z,13.40
2018-04-30T04:12:48.761Z,13.43
2018-04-30T04:13:24.394Z,13.33
2018-04-30T04:13:59.703Z,13.37
2018-04-30T04:14:35.859Z,13.37
2018-04-30T04:15:11.290Z,13.32
2018-04-30T04:15:46.628Z,13.37
2018-04-30T04:16:21.831Z,13.44
2018-04-30T04:16:57.348Z,13.29
2018-04-30T04:17:32.934Z,13.30
2018-04-30T04:18:07.959Z,13.25
2018-04-30T04:18:43.254Z,13.21
2018-04-30T04:19:18.623Z,13.15
2018-04-30T04:19:53.917Z,13.15
2018-04-30T04:20:29.493Z,13.22
2018-04-30T04:21:05.069Z,13.20
2018-04-30T04:21:40.368Z,13.17
2018-04-30T04:22:15.401Z,13.25
2018-04-30T04:22:50.599Z,13.21
2018-04-30T04:23:26.118Z,13.18
2018-04-30T04:24:01.402Z,13.17
2018-04-30T04:24:36.611Z,13.24
2018-04-30T04:25:11.799Z,13.24
2018-04-30T04:25:47.534Z,13.20
2018-04-30T04:26:22.951Z,13.21
2018-04-30T04:26:58.796Z,13.18
2018-04-30T04:27:34.255Z,13.27
2018-04-30T04:28:09.540Z,13.17
2018-04-30T04:28:44.941Z,13.22
2018-04-30T04:29:20.329Z,13.22
2018-04-30T04:29:56.052Z,13.24
2018-04-30T04:30:31.149Z,13.37
2018-04-30T04:31:06.474Z,13.27
2018-04-30T04:31:41.979Z,13.27
2018-04-30T04:32:17.085Z,13.40
2018-04-30T04:32:52.609Z,13.36
2018-04-30T04:33:28.131Z,13.33
2018-04-30T04:34:03.228Z,13.43
2018-04-30T04:34:38.552Z,13.32
2018-04-30T04:35:13.682Z,13.38
2018-04-30T04:35:48.990Z,13.44
2018-04-30T04:36:24.294Z,13.36
2018-04-30T04:36:59.801Z,13.43
2018-04-30T04:37:35.377Z,13.36
2018-04-30T04:38:10.562Z,13.41
2018-04-30T04:38:45.777Z,13.46
2018-04-30T04:39:21.069Z,13.43
2018-04-30T04:39:56.301Z,13.40
2018-04-30T04:40:31.834Z,13.46
2018-04-30T04:41:06.935Z,13.38
2018-04-30T04:41:42.228Z,13.40
2018-04-30T04:42:17.406Z,13.51
2018-04-30T04:42:52.530Z,13.38
2018-04-30T04:43:27.818Z,13.36
2018-04-30T04:44:03.352Z,13.43
2018-04-30T04:44:38.630Z,13.36
2018-04-30T04:45:13.877Z,13.32
2018-04-30T04:45:49.824Z,13.40
2018-04-30T04:46:25.277Z,13.41
2018-04-30T04:47:01.362Z,13.37
2018-04-30T04:47:36.978Z,13.47
2018-04-30T04:48:12.218Z,13.44
2018-04-30T04:48:47.752Z,13.52
2018-04-30T04:49:23.162Z,13.56
2018-04-30T04:49:58.787Z,13.49
2018-04-30T04:50:34.028Z,13.54
2018-04-30T04:51:09.616Z,13.56
2018-04-30T04:51:44.865Z,13.52
2018-04-30T04:52:20.482Z,13.56
2018-04-30T04:52:55.785Z,13.59
2018-04-30T04:53:31.028Z,13.51
2018-04-30T04:54:07.015Z,13.54
2018-04-30T04:54:42.532Z,13.49
2018-04-30T04:55:17.814Z,13.58
2018-04-30T04:55:53.139Z,13.56
2018-04-30T04:56:28.636Z,13.70
2018-04-30T04:57:03.967Z,13.69
2018-04-30T04:57:40.174Z,13.65
2018-04-30T04:58:15.411Z,13.76
2018-04-30T04:58:50.803Z,13.76
2018-04-30T04:59:26.393Z,13.79
2018-04-30T05:00:01.709Z,13.81
2018-04-30T05:00:37.816Z,13.87
2018-04-30T05:01:13.258Z,13.95
2018-04-30T05:01:49.170Z,13.77
2018-04-30T05:02:24.893Z,13.84
2018-04-30T05:03:00.214Z,13.83
2018-04-30T05:03:35.446Z,13.79
2018-04-30T05:04:10.847Z,13.89
2018-04-30T05:04:49.296Z,13.79
2018-04-30T05:05:24.730Z,13.79
2018-04-30T05:06:00.118Z,13.81
2018-04-30T05:06:35.640Z,13.88
2018-04-30T05:07:10.798Z,13.80
2018-04-30T05:07:46.024Z,13.89
2018-04-30T05:08:21.110Z,13.87
2018-04-30T05:08:56.547Z,13.87
2018-04-30T05:09:32.180Z,13.87
2018-04-30T05:10:07.598Z,13.83
2018-04-30T05:10:43.614Z,13.71
2018-04-30T05:11:20.104Z,13.81
2018-04-30T05:11:55.563Z,13.89
2018-04-30T05:12:30.758Z,13.81
2018-04-30T05:13:06.066Z,13.83
2018-04-30T05:13:41.077Z,13.88
2018-04-30T05:14:16.289Z,13.80
2018-04-30T05:14:51.808Z,13.84
2018-04-30T05:15:27.110Z,13.91
2018-04-30T05:16:02.552Z,13.89
2018-04-30T05:16:37.661Z,13.96
2018-04-30T05:17:13.104Z,13.91
2018-04-30T05:17:48.791Z,13.95
2018-04-30T05:18:24.510Z,13.94
2018-04-30T05:19:00.003Z,13.81
2018-04-30T05:19:35.320Z,13.88
2018-04-30T05:20:10.824Z,14.01
2018-04-30T05:20:48.489Z,13.95
2018-04-30T05:21:23.832Z,13.99
2018-04-30T05:21:59.579Z,13.94
2018-04-30T05:22:35.298Z,13.94
2018-04-30T05:23:10.438Z,13.95
2018-04-30T05:23:45.631Z,13.84
2018-04-30T05:24:20.860Z,13.87
2018-04-30T05:24:56.255Z,13.83
2018-04-30T05:25:31.893Z,13.77
2018-04-30T05:26:07.203Z,13.87
2018-04-30T05:26:42.864Z,13.99
2018-04-30T05:27:18.503Z,13.96
2018-04-30T05:27:53.828Z,14.01
2018-04-30T05:28:28.944Z,14.06
2018-04-30T05:29:04.362Z,14.12
2018-04-30T05:29:40.995Z,14.07
2018-04-30T05:30:16.282Z,14.07
2018-04-30T05:30:51.715Z,14.16
2018-04-30T05:31:27.229Z,14.19
2018-04-30T05:32:02.397Z,14.25
2018-04-30T05:32:38.624Z,14.27
2018-04-30T05:33:14.036Z,14.27
2018-04-30T05:33:49.136Z,14.35
2018-04-30T05:34:24.640Z,14.28
2018-04-30T05:35:00.054Z,14.24
2018-04-30T05:35:35.272Z,14.34
2018-04-30T05:36:10.671Z,14.27
2018-04-30T05:36:45.826Z,14.32
2018-04-30T05:37:21.838Z,14.28
2018-04-30T05:37:57.163Z,14.28
2018-04-30T05:38:32.663Z,14.27
2018-04-30T05:39:08.000Z,14.35
2018-04-30T05:39:43.414Z,14.28
2018-04-30T05:40:18.659Z,14.34
2018-04-30T05:40:54.177Z,14.29
2018-04-30T05:41:29.494Z,14.25
2018-04-30T05:42:04.831Z,14.29
2018-04-30T05:42:40.634Z,14.29
2018-04-30T05:43:16.140Z,14.29
2018-04-30T05:43:51.460Z,14.31
2018-04-30T05:44:26.766Z,14.32
2018-04-30T05:45:02.192Z,14.32
2018-04-30T05:45:37.710Z,14.37
2018-04-30T05:46:13.059Z,14.34
2018-04-30T05:46:48.494Z,14.46
2018-04-30T05:47:24.183Z,14.38
2018-04-30T05:47:59.710Z,14.39
2018-04-30T05:48:35.126Z,14.31
2018-04-30T05:49:10.439Z,14.47
2018-04-30T05:49:45.746Z,14.43
2018-04-30T05:50:20.899Z,14.44
2018-04-30T05:50:55.981Z,14.50
2018-04-30T05:51:31.402Z,14.38
2018-04-30T05:52:06.827Z,14.47
2018-04-30T05:52:42.759Z,14.44
2018-04-30T05:53:17.909Z,14.44
2018-04-30T05:53:53.405Z,14.44
2018-04-30T05:54:28.742Z,14.46
2018-04-30T05:55:04.031Z,14.46
2018-04-30T05:55:39.448Z,14.47
2018-04-30T05:56:14.627Z,14.53
2018-04-30T05:56:50.416Z,14.47
2018-04-30T05:57:25.767Z,14.47
2018-04-30T05:58:01.124Z,14.56
2018-04-30T05:58:36.860Z,14.44
2018-04-30T05:59:12.335Z,14.50
2018-04-30T05:59:47.788Z,14.47
2018-04-30T06:00:23.267Z,14.39
2018-04-30T06:00:58.720Z,14.50
2018-04-30T06:01:34.259Z,14.37
2018-04-30T06:02:10.202Z,14.44
2018-04-30T06:02:45.423Z,14.46
2018-04-30T06:03:20.764Z,14.47
2018-04-30T06:03:56.161Z,14.56
2018-04-30T06:04:31.805Z,14.50
2018-04-30T06:05:07.583Z,14.50
2018-04-30T06:05:42.977Z,14.46
2018-04-30T06:06:18.392Z,14.60
2018-04-30T06:06:53.820Z,14.56
2018-04-30T06:07:29.067Z,14.54
2018-04-30T06:08:04.603Z,14.56
2018-04-30T06:08:40.893Z,14.57
2018-04-30T06:09:16.379Z,14.44
2018-04-30T06:09:51.825Z,14.50
2018-04-30T06:10:27.245Z,14.50
2018-04-30T06:11:03.025Z,14.52
2018-04-30T06:11:38.313Z,14.54
2018-04-30T06:12:13.679Z,14.67
2018-04-30T06:12:48.996Z,14.52
2018-04-30T06:13:24.203Z,14.60
2018-04-30T06:13:59.563Z,14.52
2018-04-30T06:14:34.981Z,14.54
2018-04-30T06:15:10.347Z,14.54
2018-04-30T06:15:46.145Z,14.61
2018-04-30T06:16:21.068Z,14.61
2018-04-30T06:16:56.294Z,14.74
2018-04-30T06:17:31.704Z,14.67
2018-04-30T06:18:06.852Z,14.60
2018-04-30T06:18:42.079Z,14.65
2018-04-30T06:19:17.848Z,14.62
2018-04-30T06:19:53.267Z,14.57
2018-04-30T06:20:28.690Z,14.61
2018-04-30T06:21:03.977Z,14.62
2018-04-30T06:21:39.794Z,14.62
2018-04-30T06:22:14.790Z,14.62
2018-04-30T06:22:50.872Z,14.65
2018-04-30T06:23:26.178Z,14.67
2018-04-30T06:24:01.390Z,14.61
2018-04-30T06:24:36.806Z,14.61
2018-04-30T06:25:12.260Z,14.54
2018-04-30T06:25:47.945Z,14.67
2018-04-30T06:26:23.985Z,14.71
2018-04-30T06:29:00.839Z,14.80
2018-04-30T06:29:36.072Z,14.68
2018-04-30T06:30:11.629Z,14.72
2018-04-30T06:30:49.294Z,14.86
2018-04-30T06:31:24.916Z,14.87
2018-04-30T06:32:00.797Z,14.80
2018-04-30T06:32:36.085Z,14.83
2018-04-30T06:33:13.717Z,14.75
2018-04-30T06:33:49.302Z,14.80
2018-04-30T06:34:24.808Z,14.87
2018-04-30T06:35:00.103Z,14.75
2018-04-30T06:35:35.147Z,14.83
2018-04-30T06:36:10.731Z,14.84
2018-04-30T06:36:45.922Z,14.83
2018-04-30T06:37:21.324Z,14.90
2018-04-30T06:37:56.613Z,14.83
2018-04-30T06:38:32.108Z,14.86
2018-04-30T06:39:07.308Z,14.80
2018-04-30T06:39:42.520Z,14.83
2018-04-30T06:40:17.727Z,14.84
2018-04-30T06:40:53.078Z,14.84
2018-04-30T06:41:28.273Z,14.84
2018-04-30T06:42:03.695Z,14.78
2018-04-30T06:42:39.592Z,14.86
2018-04-30T06:43:14.990Z,14.86
2018-04-30T06:43:50.676Z,14.86
2018-04-30T06:44:25.976Z,14.93
2018-04-30T06:45:01.403Z,14.95
2018-04-30T06:45:38.509Z,15.02
2018-04-30T06:46:14.274Z,14.80
2018-04-30T06:46:49.377Z,14.78
2018-04-30T06:47:24.591Z,14.91
2018-04-30T06:48:00.108Z,14.83
2018-04-30T06:48:35.315Z,14.86
2018-04-30T06:49:10.707Z,15.02
2018-04-30T06:49:46.144Z,14.99
2018-04-30T06:50:21.756Z,15.05
2018-04-30T06:50:57.294Z,14.98
2018-04-30T06:51:32.576Z,15.03
2018-04-30T06:52:07.886Z,14.95
2018-04-30T06:52:43.202Z,15.01
2018-04-30T06:53:18.525Z,14.94
2018-04-30T06:53:54.054Z,14.95
2018-04-30T06:54:29.443Z,15.03
2018-04-30T06:55:05.081Z,15.01
2018-04-30T06:55:43.359Z,15.03
2018-04-30T06:56:18.583Z,15.05
2018-04-30T06:56:54.275Z,15.02
2018-04-30T06:57:29.400Z,14.91
2018-04-30T06:58:04.702Z,15.05
2018-04-30T06:58:39.963Z,15.08
2018-04-30T06:59:15.687Z,15.06
2018-04-30T06:59:51.279Z,15.06
2018-04-30T07:00:26.567Z,15.12
2018-04-30T07:01:01.819Z,15.09
2018-04-30T07:01:37.130Z,15.11
2018-04-30T07:02:12.642Z,15.08
2018-04-30T07:02:48.491Z,15.03
2018-04-30T07:03:24.018Z,15.08
2018-04-30T07:03:59.485Z,15.05
2018-04-30T07:04:34.973Z,14.99
2018-04-30T07:05:10.906Z,14.90
2018-04-30T07:05:46.346Z,15.02
2018-04-30T07:06:21.748Z,14.90
2018-04-30T07:06:57.056Z,14.93
2018-04-30T07:07:32.335Z,15.02
2018-04-30T07:08:07.738Z,14.88
2018-04-30T07:08:43.028Z,14.91
2018-04-30T07:09:18.688Z,15.02
2018-04-30T07:09:53.871Z,14.95
2018-04-30T07:10:29.363Z,15.02
2018-04-30T07:11:04.796Z,14.87
2018-04-30T07:11:40.006Z,14.90
2018-04-30T07:12:15.551Z,14.94
2018-04-30T07:12:50.848Z,14.91
2018-04-30T07:13:26.181Z,15.03
2018-04-30T07:14:01.689Z,15.01
2018-04-30T07:14:36.806Z,15.01
2018-04-30T07:15:11.925Z,14.93
2018-04-30T07:15:47.029Z,15.03
2018-04-30T07:16:22.245Z,15.12
2018-04-30T07:16:57.758Z,15.13
2018-04-30T07:17:32.892Z,15.19
2018-04-30T07:18:08.700Z,15.17
2018-04-30T07:18:44.004Z,15.20
2018-04-30T07:19:19.512Z,15.23
2018-04-30T07:19:54.742Z,15.19
2018-04-30T07:20:30.131Z,15.20
2018-04-30T07:21:06.268Z,15.17
2018-04-30T07:21:47.401Z,15.17
2018-04-30T07:22:22.423Z,15.27
2018-04-30T07:22:59.530Z,15.23
2018-04-30T07:23:35.025Z,15.24
2018-04-30T07:24:10.456Z,15.26
2018-04-30T07:24:46.057Z,15.24
2018-04-30T07:25:21.287Z,15.31
2018-04-30T07:25:56.814Z,15.38
2018-04-30T07:26:31.992Z,15.35
2018-04-30T07:27:07.402Z,15.36
2018-04-30T07:27:42.537Z,15.33
2018-04-30T07:28:17.942Z,15.39
2018-04-30T07:28:54.233Z,15.39
2018-04-30T07:29:29.550Z,15.48
2018-04-30T07:30:04.825Z,15.56
2018-04-30T07:30:40.072Z,15.56
2018-04-30T07:31:15.371Z,15.49
2018-04-30T07:31:50.588Z,15.68
2018-04-30T07:32:26.012Z,15.68
2018-04-30T07:33:01.428Z,15.61
2018-04-30T07:33:36.815Z,15.70
2018-04-30T07:34:12.131Z,15.81
2018-04-30T07:34:47.568Z,15.82
2018-04-30T07:35:22.954Z,15.81
2018-04-30T07:35:58.481Z,15.79
2018-04-30T07:36:33.602Z,15.84
2018-04-30T07:37:08.911Z,15.81
2018-04-30T07:37:44.307Z,15.76
2018-04-30T07:38:19.770Z,15.74